createdAt,value
2023-03-05T00:01:42.252Z,12.85
2023-03-05T00:04:15.890Z,12.40
2023-03-05T00:06:44.372Z,9.82
2023-03-05T00:09:14.724Z,13.82
2023-03-05T00:11:43.003Z,14.15
2023-03-05T00:14:12.959Z,14.68
2023-03-05T00:16:41.665Z,10.52
2023-03-05T00:19:11.417Z,12.82
2023-03-05T00:21:42.239Z,10.18
2023-03-05T00:24:15.613Z,10.27
2023-03-05T00:26:45.022Z,15.35
2023-03-05T00:29:18.378Z,13.02
2023-03-05T00:31:47.582Z,14.23
2023-03-05T00:34:18.855Z,9.88
2023-03-05T00:36:50.702Z,20.23
2023-03-05T00:39:21.943Z,17.52
2023-03-05T00:41:50.402Z,11.98
2023-03-05T00:44:18.812Z,14.90
2023-03-05T00:46:47.216Z,10.95
2023-03-05T00:49:17.733Z,14.43
2023-03-05T00:51:46.120Z,13.52
2023-03-05T00:54:14.444Z,10.65
2023-03-05T00:56:44.970Z,10.80
2023-03-05T00:59:13.632Z,14.77
2023-03-05T01:01:42.067Z,14.73
2023-03-05T01:04:10.595Z,12.13
2023-03-05T01:06:42.726Z,17.67
2023-03-05T01:09:10.972Z,13.57
2023-03-05T01:11:39.315Z,14.63
2023-03-05T01:14:09.022Z,10.88
2023-03-05T01:16:37.415Z,14.90
2023-03-05T01:19:08.915Z,16.23
2023-03-05T01:21:38.002Z,15.07
2023-03-05T01:24:10.274Z,12.05
2023-03-05T01:26:38.798Z,16.23
2023-03-05T01:29:08.660Z,17.73
2023-03-05T01:31:36.959Z,14.20
2023-03-05T01:34:05.388Z,14.15
2023-03-05T01:36:34.040Z,14.85
2023-03-05T01:39:02.798Z,17.02
2023-03-05T01:41:31.118Z,17.02
2023-03-05T01:43:59.572Z,15.43
2023-03-05T01:46:36.949Z,16.73
2023-03-05T01:49:18.577Z,16.00
2023-03-05T01:51:56.945Z,16.67
2023-03-05T01:54:31.922Z,12.82
2023-03-05T01:57:06.378Z,13.13
2023-03-05T01:59:35.122Z,17.83
2023-03-05T02:02:08.202Z,17.15
2023-03-05T02:04:44.449Z,14.77
2023-03-05T02:07:13.948Z,13.85
2023-03-05T02:09:42.828Z,13.63
2023-03-05T02:12:12.915Z,12.65
2023-03-05T02:14:43.288Z,15.82
2023-03-05T02:17:14.010Z,13.05
2023-03-05T02:19:52.012Z,18.13
2023-03-05T02:22:25.027Z,19.23
2023-03-05T02:24:53.802Z,14.40
2023-03-05T02:27:34.773Z,16.95
2023-03-05T02:30:05.449Z,11.07
2023-03-05T02:32:33.787Z,14.70
2023-03-05T02:35:02.069Z,18.08
2023-03-05T02:37:31.813Z,10.10
2023-03-05T02:40:00.243Z,15.40
2023-03-05T02:42:28.598Z,15.68
2023-03-05T02:44:56.936Z,11.32
2023-03-05T02:47:25.617Z,14.55
2023-03-05T02:49:55.300Z,11.30
2023-03-05T02:52:24.163Z,14.05
2023-03-05T02:54:54.266Z,12.88
2023-03-05T02:57:22.632Z,14.77
2023-03-05T02:59:51.140Z,12.55
2023-03-05T03:02:19.454Z,12.18
2023-03-05T03:04:47.694Z,10.48
2023-03-05T03:07:17.419Z,9.65
2023-03-05T03:09:46.241Z,13.38
2023-03-05T03:12:16.710Z,11.57
2023-03-05T03:14:45.590Z,10.95
2023-03-05T03:17:17.189Z,11.48
2023-03-05T03:19:46.558Z,12.10
2023-03-05T03:22:17.545Z,8.23
2023-03-05T03:24:46.724Z,14.27
2023-03-05T03:27:18.809Z,14.82
2023-03-05T03:29:47.060Z,14.80
2023-03-05T03:32:17.786Z,9.48
2023-03-05T03:34:48.096Z,10.65
2023-03-05T03:37:18.092Z,13.10
2023-03-05T03:39:46.396Z,16.20
2023-03-05T03:42:19.038Z,16.38
2023-03-05T03:44:47.319Z,11.23
2023-03-05T03:47:15.662Z,14.70
2023-03-05T03:49:44.357Z,12.93
2023-03-05T03:52:12.708Z,10.20
2023-03-05T03:54:41.206Z,15.25
2023-03-05T03:57:09.437Z,14.90
2023-03-05T03:59:39.272Z,14.00
2023-03-05T04:02:07.630Z,15.07
2023-03-05T04:04:36.270Z,11.32
2023-03-05T04:07:04.668Z,13.82
2023-03-05T04:09:33.537Z,17.02
2023-03-05T04:12:01.919Z,11.65
2023-03-05T04:14:30.507Z,12.40
2023-03-05T04:17:00.136Z,16.65
2023-03-05T04:19:35.200Z,11.63
2023-03-05T04:22:05.748Z,14.63
2023-03-05T04:24:34.499Z,19.25
2023-03-05T04:27:02.749Z,15.85
2023-03-05T04:29:31.103Z,13.20
2023-03-05T04:32:00.786Z,21.90
2023-03-05T04:34:29.120Z,14.82
2023-03-05T04:36:57.386Z,12.65
2023-03-05T04:39:25.960Z,12.98
2023-03-05T04:41:54.214Z,10.55
2023-03-05T04:44:23.324Z,14.85
2023-03-05T04:46:52.060Z,12.55
2023-03-05T04:49:22.135Z,14.60
2023-03-05T04:51:50.419Z,17.20
2023-03-05T04:54:18.675Z,15.00
2023-03-05T04:56:46.965Z,9.50
2023-03-05T04:59:17.519Z,12.95
2023-03-05T05:01:46.237Z,12.45
2023-03-05T05:04:18.953Z,12.82
2023-03-05T05:06:48.859Z,16.35
2023-03-05T05:09:17.598Z,12.77
2023-03-05T05:11:46.111Z,12.02
2023-03-05T05:14:14.754Z,12.75
2023-03-05T05:16:43.231Z,12.00
2023-03-05T05:19:12.003Z,16.90
2023-03-05T05:21:40.934Z,12.05
2023-03-05T05:24:10.655Z,11.55
2023-03-05T05:26:39.048Z,18.35
2023-03-05T05:29:07.374Z,14.77
2023-03-05T05:31:35.733Z,13.45
2023-03-05T05:34:03.993Z,11.52
2023-03-05T05:36:32.310Z,12.32
2023-03-05T05:39:00.646Z,11.57
2023-03-05T05:41:30.363Z,9.13
2023-03-05T05:43:58.588Z,15.80
2023-03-05T05:46:27.481Z,9.18
2023-03-05T05:48:55.838Z,12.98
2023-03-05T05:51:25.129Z,9.77
2023-03-05T05:53:54.488Z,8.52
2023-03-05T05:56:23.152Z,10.30
2023-03-05T05:58:53.004Z,6.45
2023-03-05T06:01:24.826Z,9.55
2023-03-05T06:03:53.206Z,7.93
2023-03-05T06:06:23.799Z,10.27
2023-03-05T06:08:52.625Z,10.52
2023-03-05T06:11:22.228Z,9.65
2023-03-05T06:13:52.616Z,10.77
2023-03-05T06:16:24.935Z,7.70
2023-03-05T06:18:53.785Z,9.77
2023-03-05T06:21:23.350Z,9.57
2023-03-05T06:23:52.399Z,9.23
2023-03-05T06:26:23.160Z,11.45
2023-03-05T06:28:53.281Z,7.90
2023-03-05T06:31:25.652Z,12.52
2023-03-05T06:33:56.048Z,8.90
2023-03-05T06:36:26.281Z,10.25
2023-03-05T06:38:55.686Z,10.63
2023-03-05T06:41:27.264Z,9.77
2023-03-05T06:43:57.621Z,9.88
2023-03-05T06:46:29.451Z,7.93
2023-03-05T06:49:00.014Z,12.15
2023-03-05T06:51:30.850Z,5.53
2023-03-05T06:54:02.881Z,7.35
2023-03-05T06:56:34.774Z,7.63
2023-03-05T06:59:07.808Z,6.97
2023-03-05T07:01:36.611Z,6.95
2023-03-05T07:04:07.034Z,7.85
2023-03-05T07:06:38.621Z,8.90
2023-03-05T07:09:09.343Z,6.13
2023-03-05T07:11:37.853Z,11.63
2023-03-05T07:14:07.603Z,10.98
2023-03-05T07:16:36.540Z,14.50
2023-03-05T07:19:07.440Z,12.98
2023-03-05T07:21:39.591Z,8.95
2023-03-05T07:24:09.717Z,11.88
2023-03-05T07:26:38.110Z,11.75
2023-03-05T07:29:07.757Z,14.05
2023-03-05T07:31:36.189Z,11.63
2023-03-05T07:34:06.620Z,12.63
2023-03-05T07:36:35.374Z,10.35
2023-03-05T07:39:04.968Z,10.30
2023-03-05T07:41:33.417Z,9.40
2023-03-05T07:44:02.027Z,10.02
2023-03-05T07:46:34.474Z,8.98
2023-03-05T07:49:02.980Z,9.20
2023-03-05T07:51:31.536Z,9.57
2023-03-05T07:54:01.308Z,8.48
2023-03-05T07:56:32.775Z,9.10
2023-03-05T07:59:02.708Z,9.43
2023-03-05T08:01:33.356Z,9.10
2023-03-05T08:04:02.026Z,9.77
2023-03-05T08:06:30.336Z,7.80
2023-03-05T08:09:01.894Z,8.60
2023-03-05T08:11:32.074Z,10.20
2023-03-05T08:14:08.361Z,5.75
2023-03-05T08:16:38.376Z,6.28
2023-03-05T08:19:15.663Z,7.95
2023-03-05T08:21:43.873Z,7.85
2023-03-05T08:24:21.317Z,5.65
2023-03-05T08:26:49.987Z,11.27
2023-03-05T08:29:21.495Z,5.35
2023-03-05T08:31:53.586Z,5.13
2023-03-05T08:34:22.510Z,5.03
2023-03-05T08:36:50.913Z,4.20
2023-03-05T08:39:20.107Z,6.20
2023-03-05T08:41:48.424Z,5.05
2023-03-05T08:44:19.060Z,4.22
2023-03-05T08:46:48.143Z,3.80
2023-03-05T08:49:20.681Z,4.97
2023-03-05T08:51:49.058Z,8.55
2023-03-05T08:54:17.627Z,5.97
2023-03-05T08:56:50.403Z,5.20
2023-03-05T08:59:18.666Z,4.80
2023-03-05T09:01:47.396Z,6.00
2023-03-05T09:04:17.205Z,5.72
2023-03-05T09:06:45.645Z,4.63
2023-03-05T09:09:14.176Z,4.30
2023-03-05T09:11:42.779Z,7.28
2023-03-05T09:14:11.899Z,7.40
2023-03-05T09:16:41.508Z,8.93
2023-03-05T09:19:10.674Z,8.70
2023-03-05T09:21:40.357Z,4.25
2023-03-05T09:24:09.284Z,6.57
2023-03-05T09:26:37.542Z,6.72
2023-03-05T09:29:08.932Z,5.85
2023-03-05T09:31:37.269Z,4.82
2023-03-05T09:34:06.572Z,5.88
2023-03-05T09:36:35.416Z,6.07
2023-03-05T09:39:07.666Z,4.80
2023-03-05T09:41:55.041Z,6.72
2023-03-05T09:44:34.808Z,7.22
2023-03-05T09:47:22.491Z,7.45
2023-03-05T09:50:00.416Z,4.70
2023-03-05T09:52:39.675Z,6.38
2023-03-05T09:55:19.661Z,6.57
2023-03-05T09:57:54.813Z,6.53
2023-03-05T10:00:35.729Z,3.92
2023-03-05T10:03:08.525Z,4.53
2023-03-05T10:05:55.132Z,9.15
2023-03-05T10:08:31.348Z,4.22
2023-03-05T10:11:06.780Z,4.28
2023-03-05T10:13:40.718Z,3.20
2023-03-05T10:16:42.839Z,4.15
2023-03-05T10:19:19.961Z,3.35
2023-03-05T10:21:53.923Z,4.25
2023-03-05T10:24:38.424Z,2.85
2023-03-05T10:27:13.086Z,2.45
2023-03-05T10:30:02.615Z,2.60
2023-03-05T10:32:43.272Z,3.58
2023-03-05T10:35:39.391Z,4.60
2023-03-05T10:38:42.179Z,2.63
2023-03-05T10:41:20.925Z,1.98
2023-03-05T10:43:59.501Z,5.60
2023-03-05T10:46:35.240Z,6.07
2023-03-05T10:49:08.680Z,4.63
2023-03-05T10:51:42.625Z,4.82
2023-03-05T10:54:21.220Z,7.22
2023-03-05T10:56:49.492Z,4.35
2023-03-05T10:59:19.077Z,4.18
2023-03-05T11:02:08.686Z,5.55
2023-03-05T11:04:39.926Z,4.32
2023-03-05T11:07:35.738Z,3.42
2023-03-05T11:10:19.367Z,3.30
2023-03-05T11:12:48.182Z,4.75
2023-03-05T11:15:32.030Z,3.08
2023-03-05T11:18:24.252Z,6.35
2023-03-05T11:20:53.653Z,3.70
2023-03-05T11:23:25.252Z,2.80
2023-03-05T11:26:02.702Z,4.32
2023-03-05T11:28:36.216Z,3.38
2023-03-05T11:31:23.520Z,3.05
2023-03-05T11:34:04.975Z,4.30
2023-03-05T11:36:35.296Z,7.18
2023-03-05T11:39:17.665Z,4.65
2023-03-05T11:41:51.989Z,4.47
2023-03-05T11:44:24.976Z,3.97
2023-03-05T11:46:59.322Z,3.45
2023-03-05T11:49:31.203Z,3.30
2023-03-05T11:52:08.233Z,3.13
2023-03-05T11:54:45.400Z,5.28
2023-03-05T11:57:15.662Z,4.65
2023-03-05T11:59:45.191Z,2.50
2023-03-05T12:02:22.348Z,4.22
2023-03-05T12:04:51.741Z,3.53
2023-03-05T12:07:30.870Z,5.72
2023-03-05T12:10:02.799Z,5.18
2023-03-05T12:12:40.937Z,5.38
2023-03-05T12:15:39.462Z,5.05
2023-03-05T12:18:20.356Z,8.30
2023-03-05T12:20:57.143Z,5.03
2023-03-05T12:23:26.956Z,3.45
2023-03-05T12:25:59.753Z,4.38
2023-03-05T12:28:58.007Z,6.22
2023-03-05T12:31:39.452Z,4.40
2023-03-05T12:34:48.492Z,5.30
2023-03-05T12:38:26.669Z,5.22
2023-03-05T12:41:45.148Z,3.45
2023-03-05T12:44:24.274Z,5.75
2023-03-05T12:47:20.131Z,3.63
2023-03-05T12:49:49.702Z,2.35
2023-03-05T12:52:31.211Z,3.20
2023-03-05T12:55:16.017Z,3.65
2023-03-05T12:57:48.873Z,6.22
2023-03-05T13:00:23.964Z,3.88
2023-03-05T13:02:58.601Z,4.13
2023-03-05T13:05:32.573Z,4.32
2023-03-05T13:08:26.035Z,5.55
2023-03-05T13:10:56.907Z,3.28
2023-03-05T13:13:31.647Z,4.60
2023-03-05T13:16:05.667Z,2.88
2023-03-05T13:18:40.228Z,5.85
2023-03-05T13:21:19.333Z,3.38
2023-03-05T13:23:57.666Z,6.30
2023-03-05T13:26:27.245Z,5.70
2023-03-05T13:29:13.816Z,3.25
2023-03-05T13:31:46.469Z,3.15
2023-03-05T13:34:23.311Z,6.95
2023-03-05T13:36:59.168Z,5.57
2023-03-05T13:39:31.844Z,4.30
2023-03-05T13:42:07.002Z,4.03
2023-03-05T13:44:36.807Z,4.63
2023-03-05T13:47:18.994Z,4.65
2023-03-05T13:49:48.358Z,6.00
2023-03-05T13:52:25.713Z,5.45
2023-03-05T13:54:54.053Z,5.13
2023-03-05T13:57:39.335Z,4.22
2023-03-05T14:00:26.758Z,7.13
2023-03-05T14:02:59.502Z,6.13
2023-03-05T14:05:28.358Z,8.45
2023-03-05T14:07:58.310Z,8.05
2023-03-05T14:10:34.617Z,7.10
2023-03-05T14:13:07.681Z,6.28
2023-03-05T14:15:37.802Z,4.45
2023-03-05T14:18:21.319Z,5.53
2023-03-05T14:21:07.645Z,8.07
2023-03-05T14:23:42.976Z,6.15
2023-03-05T14:26:33.677Z,3.78
2023-03-05T14:29:04.768Z,4.60
2023-03-05T14:31:48.147Z,5.63
2023-03-05T14:34:28.919Z,6.15
2023-03-05T14:37:00.664Z,5.13
2023-03-05T14:39:44.012Z,5.28
2023-03-05T14:42:31.893Z,7.70
2023-03-05T14:45:03.327Z,6.63
2023-03-05T14:47:32.997Z,4.90
2023-03-05T14:50:01.294Z,4.57
2023-03-05T14:52:29.585Z,9.00
2023-03-05T14:54:59.744Z,4.55
2023-03-05T14:57:32.439Z,6.88
2023-03-05T15:00:00.781Z,5.70
2023-03-05T15:02:29.270Z,4.60
2023-03-05T15:04:59.008Z,5.65
2023-03-05T15:07:32.015Z,5.63
2023-03-05T15:10:00.850Z,5.10
2023-03-05T15:12:29.328Z,5.15
2023-03-05T15:14:58.579Z,7.65
2023-03-05T15:17:35.244Z,5.43
2023-03-05T15:20:10.056Z,4.18
2023-03-05T15:22:39.010Z,6.07
2023-03-05T15:25:08.521Z,4.70
2023-03-05T15:27:36.917Z,5.47
2023-03-05T15:30:07.226Z,9.35
2023-03-05T15:32:35.806Z,4.68
2023-03-05T15:35:06.912Z,4.68
2023-03-05T15:37:35.207Z,3.35
2023-03-05T15:40:03.573Z,5.60
2023-03-05T15:42:32.277Z,4.57
2023-03-05T15:45:00.583Z,9.10
2023-03-05T15:47:31.201Z,6.15
2023-03-05T15:50:02.551Z,5.03
2023-03-05T15:52:32.345Z,5.60
2023-03-05T15:55:02.746Z,5.60
2023-03-05T15:57:41.044Z,6.10
2023-03-05T16:00:12.184Z,5.85
2023-03-05T16:02:40.802Z,8.25
2023-03-05T16:05:10.732Z,6.90
2023-03-05T16:07:44.049Z,6.82
2023-03-05T16:10:14.624Z,4.72
2023-03-05T16:12:43.152Z,7.35
2023-03-05T16:15:17.721Z,6.75
2023-03-05T16:17:49.682Z,6.70
2023-03-05T16:20:18.697Z,5.82
2023-03-05T16:22:49.720Z,5.13
2023-03-05T16:25:18.704Z,4.25
2023-03-05T16:27:47.054Z,11.27
2023-03-05T16:30:19.992Z,6.00
2023-03-05T16:32:48.346Z,5.85
2023-03-05T16:35:29.560Z,8.43
2023-03-05T16:37:59.811Z,6.28
2023-03-05T16:40:44.460Z,6.97
2023-03-05T16:43:18.853Z,5.00
2023-03-05T16:45:47.111Z,7.50
2023-03-05T16:48:17.511Z,6.45
2023-03-05T16:50:46.545Z,9.68
2023-03-05T16:53:17.440Z,5.90
2023-03-05T16:55:45.914Z,6.13
2023-03-05T16:58:14.270Z,5.28
2023-03-05T17:00:42.800Z,4.88
2023-03-05T17:03:13.748Z,5.28
2023-03-05T17:05:42.317Z,7.03
2023-03-05T17:08:10.559Z,4.15
2023-03-05T17:10:43.044Z,6.18
2023-03-05T17:13:11.814Z,4.50
2023-03-05T17:15:40.705Z,5.47
2023-03-05T17:18:10.078Z,6.55
2023-03-05T17:20:38.913Z,9.02
2023-03-05T17:23:07.386Z,6.45
2023-03-05T17:25:35.701Z,6.40
2023-03-05T17:28:05.809Z,5.63
2023-03-05T17:30:37.003Z,6.97
2023-03-05T17:33:05.926Z,6.47
2023-03-05T17:35:35.271Z,5.88
2023-03-05T17:38:05.108Z,6.65
2023-03-05T17:40:33.403Z,5.55
2023-03-05T17:43:01.676Z,4.72
2023-03-05T17:45:31.547Z,5.22
2023-03-05T17:47:59.799Z,5.65
2023-03-05T17:50:28.792Z,4.63
2023-03-05T17:52:57.195Z,3.10
2023-03-05T17:55:25.759Z,6.18
2023-03-05T17:57:54.479Z,6.20
2023-03-05T18:00:26.281Z,4.40
2023-03-05T18:02:56.483Z,4.35
2023-03-05T18:05:25.900Z,4.20
2023-03-05T18:07:54.891Z,7.40
2023-03-05T18:10:25.785Z,4.95
2023-03-05T18:12:54.634Z,6.05
2023-03-05T18:15:25.822Z,5.00
2023-03-05T18:17:58.606Z,9.38
2023-03-05T18:20:32.166Z,7.65
2023-03-05T18:23:02.633Z,9.52
2023-03-05T18:25:31.998Z,5.57
2023-03-05T18:28:01.783Z,7.05
2023-03-05T18:30:31.789Z,7.10
2023-03-05T18:33:01.669Z,4.80
2023-03-05T18:35:30.646Z,5.35
2023-03-05T18:37:59.458Z,2.88
2023-03-05T18:40:30.578Z,4.40
2023-03-05T18:43:01.686Z,4.78
2023-03-05T18:45:32.399Z,5.47
2023-03-05T18:48:02.117Z,6.43
2023-03-05T18:50:31.125Z,6.38
2023-03-05T18:52:59.413Z,5.70
2023-03-05T18:55:30.583Z,5.43
2023-03-05T18:57:59.077Z,6.45
2023-03-05T19:00:31.162Z,7.10
2023-03-05T19:03:05.828Z,6.68
2023-03-05T19:05:35.501Z,4.03
2023-03-05T19:08:04.309Z,4.90
2023-03-05T19:10:33.627Z,7.38
2023-03-05T19:13:40.993Z,6.32
2023-03-05T19:16:11.709Z,6.45
2023-03-05T19:19:23.164Z,7.10
2023-03-05T19:21:54.683Z,4.22
2023-03-05T19:24:24.985Z,4.18
2023-03-05T19:26:55.749Z,7.40
2023-03-05T19:29:24.239Z,4.78
2023-03-05T19:31:53.147Z,7.20
2023-03-05T19:34:23.126Z,5.22
2023-03-05T19:36:52.157Z,7.60
2023-03-05T19:39:20.893Z,7.18
2023-03-05T19:41:49.309Z,8.48
2023-03-05T19:44:20.273Z,5.55
2023-03-05T19:46:49.594Z,7.18
2023-03-05T19:49:19.524Z,5.90
2023-03-05T19:51:50.544Z,8.63
2023-03-05T19:54:22.466Z,15.00
2023-03-05T19:56:54.859Z,9.95
2023-03-05T19:59:27.298Z,4.97
2023-03-05T20:01:57.543Z,5.32
2023-03-05T20:04:26.216Z,6.65
2023-03-05T20:06:55.874Z,5.60
2023-03-05T20:09:24.241Z,6.28
2023-03-05T20:11:52.523Z,8.82
2023-03-05T20:14:20.784Z,6.22
2023-03-05T20:16:49.453Z,7.63
2023-03-05T20:19:20.326Z,7.68
2023-03-05T20:21:48.954Z,7.38
2023-03-05T20:24:20.518Z,7.57
2023-03-05T20:26:49.768Z,6.43
2023-03-05T20:29:19.234Z,8.40
2023-03-05T20:31:50.026Z,6.40
2023-03-05T20:34:21.674Z,8.43
2023-03-05T20:36:50.309Z,9.35
2023-03-05T20:39:19.893Z,10.07
2023-03-05T20:41:48.677Z,8.20
2023-03-05T20:44:16.954Z,6.68
2023-03-05T20:47:44.689Z,5.90
2023-03-05T20:50:15.016Z,7.75
2023-03-05T20:52:43.540Z,6.32
2023-03-05T20:55:13.918Z,5.97
2023-03-05T20:57:44.152Z,7.68
2023-03-05T21:00:14.437Z,6.15
2023-03-05T21:02:42.770Z,6.63
2023-03-05T21:05:12.663Z,9.35
2023-03-05T21:07:41.218Z,9.00
2023-03-05T21:10:10.658Z,6.47
2023-03-05T21:12:40.384Z,10.25
2023-03-05T21:15:10.695Z,7.80
2023-03-05T21:17:38.932Z,10.98
2023-03-05T21:20:09.508Z,10.07
2023-03-05T21:22:37.724Z,8.38
2023-03-05T21:25:31.120Z,9.95
2023-03-05T21:28:03.368Z,9.85
2023-03-05T21:30:36.172Z,12.30
2023-03-05T21:33:07.889Z,11.13
2023-03-05T21:35:37.321Z,11.25
2023-03-05T21:38:07.773Z,9.57
2023-03-05T21:40:39.884Z,11.85
2023-03-05T21:43:10.168Z,9.05
2023-03-05T21:45:39.975Z,8.88
2023-03-05T21:48:09.280Z,10.88
2023-03-05T21:50:40.560Z,11.38
2023-03-05T21:53:09.140Z,10.90
2023-03-05T21:56:26.397Z,10.40
2023-03-05T21:58:55.970Z,13.27
2023-03-05T22:01:24.304Z,11.82
2023-03-05T22:03:53.982Z,11.40
2023-03-05T22:06:22.536Z,12.10
2023-03-05T22:08:50.960Z,11.43
2023-03-05T22:11:20.888Z,10.85
2023-03-05T22:13:49.193Z,15.45
2023-03-05T22:16:27.095Z,15.70
2023-03-05T22:18:55.692Z,10.90
2023-03-05T22:21:26.855Z,13.48
2023-03-05T22:23:57.173Z,15.55
2023-03-05T22:26:26.733Z,11.15
2023-03-05T22:28:55.500Z,10.32
2023-03-05T22:31:28.783Z,17.30
2023-03-05T22:33:57.845Z,11.20
2023-03-05T22:36:26.163Z,13.43
2023-03-05T22:38:54.607Z,11.00
2023-03-05T22:41:23.525Z,13.35
2023-03-05T22:43:52.168Z,11.38
2023-03-05T22:46:25.572Z,13.18
2023-03-05T22:48:54.296Z,11.73
2023-03-05T22:51:23.049Z,8.15
2023-03-05T22:53:51.417Z,9.90
2023-03-05T22:56:21.860Z,13.15
2023-03-05T22:58:50.799Z,9.20
2023-03-05T23:01:22.011Z,12.77
2023-03-05T23:04:54.243Z,14.45
2023-03-05T23:07:25.878Z,13.38
2023-03-05T23:09:56.537Z,10.63
2023-03-05T23:12:26.965Z,11.63
2023-03-05T23:14:55.336Z,10.13
2023-03-05T23:17:23.586Z,11.23
2023-03-05T23:19:53.297Z,11.10
2023-03-05T23:22:21.798Z,11.85
2023-03-05T23:24:51.323Z,10.80
2023-03-05T23:27:21.021Z,10.45
2023-03-05T23:30:20.767Z,13.45
2023-03-05T23:32:53.734Z,9.70
2023-03-05T23:35:25.856Z,12.38
2023-03-05T23:37:55.962Z,13.02
2023-03-05T23:40:26.602Z,11.68
2023-03-05T23:42:56.030Z,12.20
2023-03-05T23:45:25.349Z,10.38
2023-03-05T23:47:55.348Z,12.38
2023-03-05T23:50:26.779Z,11.48
2023-03-05T23:52:55.314Z,8.15
2023-03-05T23:55:27.054Z,13.27
2023-03-05T23:57:56.396Z,13.30
